Time;durP1;ratioP1;P1;durP2;ratioP2;P2;SDS_P1;SDS_P2;PMS_P1;PMS_P2;Temp;Humidity;BMP_temperature;BMP_pressure;BME280_temperature;BME280_humidity;BME280_pressure;Samples;Min_cycle;Max_cycle;Signal;HPM_P1;HPM_P2
2023/09/25 00:00:56;;;;;;;1.50;1.10;;;16.00;1.00;;;;;;4941976;28;20062;-79
2023/09/25 00:03:22;;;;;;;4.97;1.85;;;16.00;1.00;;;;;;4942089;28;20055;-79
2023/09/25 00:05:48;;;;;;;1.50;1.40;;;16.00;1.00;;;;;;4943595;28;20023;-78
2023/09/25 00:08:13;;;;;;;1.60;1.38;;;16.00;1.00;;;;;;4945589;28;20038;-78
2023/09/25 00:10:41;;;;;;;1.40;1.30;;;15.90;1.00;;;;;;4941930;28;20123;-78
2023/09/25 00:13:07;;;;;;;4.05;1.58;;;15.90;1.00;;;;;;4942951;28;20035;-79
2023/09/25 00:15:34;;;;;;;3.17;1.50;;;15.90;1.00;;;;;;4944220;28;20031;-78
2023/09/25 00:18:00;;;;;;;3.60;1.42;;;15.90;1.00;;;;;;4944523;28;20118;-79
2023/09/25 00:20:25;;;;;;;2.05;1.45;;;15.80;1.00;;;;;;4943188;28;20264;-78
2023/09/25 00:22:51;;;;;;;1.85;1.50;;;15.90;1.00;;;;;;5008570;28;20039;-79
2023/09/25 00:25:20;;;;;;;4.85;1.60;;;15.90;1.00;;;;;;4943873;28;20027;-78
2023/09/25 00:27:46;;;;;;;1.67;1.58;;;15.80;1.00;;;;;;4961703;28;20498;-79
2023/09/25 00:30:13;;;;;;;3.10;1.63;;;15.80;1.00;;;;;;4941616;28;20031;-78
2023/09/25 00:32:39;;;;;;;9.68;1.63;;;15.80;1.00;;;;;;5016398;28;20027;-81
2023/09/25 00:35:10;;;;;;;4.75;1.70;;;15.70;2.40;;;;;;4943454;28;20035;-78
2023/09/25 00:37:36;;;;;;;2.15;1.30;;;15.70;1.40;;;;;;4941670;28;20038;-79
2023/09/25 00:40:24;;;;;;;2.00;1.70;;;15.70;3.80;;;;;;4969919;28;20497;-79
2023/09/25 00:42:55;;;;;;;2.38;1.30;;;15.70;4.30;;;;;;4943370;28;20035;-78
2023/09/25 00:45:22;;;;;;;3.60;1.40;;;15.70;2.00;;;;;;4941806;28;20078;-78
2023/09/25 00:47:50;;;;;;;3.30;1.73;;;15.60;6.60;;;;;;4942180;28;20027;-78
2023/09/25 00:50:17;;;;;;;1.52;1.42;;;15.60;9.10;;;;;;4944376;28;20499;-78
2023/09/25 00:52:44;;;;;;;1.35;1.23;;;15.60;6.00;;;;;;4944823;28;20027;-79
2023/09/25 00:55:14;;;;;;;3.38;1.67;;;15.50;4.70;;;;;;5007338;28;20163;-78
2023/09/25 00:57:41;;;;;;;3.55;1.65;;;15.60;3.90;;;;;;4943783;28;20034;-79
2023/09/25 01:00:11;;;;;;;3.08;1.80;;;15.50;3.80;;;;;;4942800;28;20035;-78
2023/09/25 01:02:41;;;;;;;1.50;1.40;;;15.60;1.00;;;;;;5006643;28;20064;-78
2023/09/25 01:05:10;;;;;;;2.05;1.67;;;15.60;1.00;;;;;;5008141;28;20050;-78
2023/09/25 01:07:36;;;;;;;3.47;1.55;;;15.60;1.00;;;;;;4943672;28;20023;-79
2023/09/25 01:10:06;;;;;;;1.60;1.50;;;15.60;1.00;;;;;;4941783;28;20505;-80
2023/09/25 01:12:32;;;;;;;1.42;1.23;;;15.70;1.00;;;;;;5007189;28;20032;-79
2023/09/25 01:14:58;;;;;;;2.17;1.80;;;15.60;1.00;;;;;;4941123;28;20024;-79
2023/09/25 01:17:24;;;;;;;1.38;1.27;;;15.60;1.00;;;;;;4941994;28;20034;-79
2023/09/25 01:19:50;;;;;;;2.03;1.75;;;15.60;1.00;;;;;;4943350;28;20477;-78
2023/09/25 01:22:16;;;;;;;5.07;1.70;;;15.60;1.00;;;;;;4943312;28;20165;-79
2023/09/25 01:24:41;;;;;;;3.58;1.23;;;15.60;1.00;;;;;;4939807;28;20024;-78
2023/09/25 01:27:07;;;;;;;2.65;1.40;;;15.60;1.00;;;;;;4950343;28;20491;-79
2023/09/25 01:29:33;;;;;;;1.35;1.23;;;15.60;1.00;;;;;;4943390;28;20186;-79
2023/09/25 01:31:58;;;;;;;5.25;1.50;;;15.50;1.00;;;;;;4941786;28;20031;-79
2023/09/25 01:34:24;;;;;;;2.55;1.50;;;15.50;1.00;;;;;;4940849;28;20392;-78
2023/09/25 01:36:50;;;;;;;1.60;1.50;;;15.50;1.00;;;;;;4943054;28;20027;-78
2023/09/25 01:39:16;;;;;;;2.03;1.83;;;15.50;1.00;;;;;;5007537;28;20043;-78
2023/09/25 01:41:42;;;;;;;1.85;1.52;;;15.40;1.00;;;;;;5006049;28;20462;-79
2023/09/25 01:44:07;;;;;;;1.48;1.23;;;15.40;1.00;;;;;;5006011;28;20058;-77
2023/09/25 01:46:33;;;;;;;2.25;1.48;;;15.50;1.00;;;;;;4940944;28;20042;-78
2023/09/25 01:48:59;;;;;;;4.25;1.10;;;15.50;1.00;;;;;;5004890;28;20074;-78
2023/09/25 01:51:25;;;;;;;1.83;1.33;;;15.50;1.00;;;;;;4942733;28;20024;-79
2023/09/25 01:53:51;;;;;;;1.30;1.10;;;15.50;1.00;;;;;;5009558;28;20051;-80
2023/09/25 01:56:17;;;;;;;2.40;1.00;;;15.50;1.00;;;;;;4941870;28;20427;-79
2023/09/25 01:58:43;;;;;;;1.33;1.13;;;15.40;1.00;;;;;;4943049;28;20035;-79
2023/09/25 02:01:09;;;;;;;3.22;1.38;;;15.40;1.00;;;;;;5016009;28;20114;-79
2023/09/25 02:03:35;;;;;;;1.13;1.02;;;15.40;1.00;;;;;;4940358;28;20483;-78
2023/09/25 02:06:00;;;;;;;8.68;1.45;;;15.40;1.00;;;;;;4942644;28;20023;-78
2023/09/25 02:08:26;;;;;;;1.25;1.00;;;15.40;1.00;;;;;;4941209;28;20074;-78
2023/09/25 02:10:52;;;;;;;1.67;1.00;;;15.40;1.00;;;;;;5013845;28;20058;-79
2023/09/25 02:13:17;;;;;;;1.90;0.73;;;15.40;1.00;;;;;;4942741;28;20031;-78
2023/09/25 02:15:43;;;;;;;1.63;1.15;;;15.40;1.00;;;;;;4940734;28;20027;-79
2023/09/25 02:18:09;;;;;;;3.75;1.20;;;15.40;1.00;;;;;;4942076;28;20090;-78
2023/09/25 02:20:35;;;;;;;2.35;1.10;;;15.40;1.00;;;;;;4943239;28;20034;-77
2023/09/25 02:23:01;;;;;;;1.58;1.25;;;15.40;1.00;;;;;;4941677;28;20110;-78
2023/09/25 02:25:27;;;;;;;4.03;1.40;;;15.40;1.00;;;;;;4942075;28;20129;-79
2023/09/25 02:27:54;;;;;;;2.13;1.25;;;15.40;1.00;;;;;;4955337;28;20538;-80
2023/09/25 02:30:19;;;;;;;3.08;0.90;;;15.40;1.00;;;;;;5015905;28;20039;-79
2023/09/25 02:32:45;;;;;;;0.82;0.82;;;15.40;1.00;;;;;;4939935;28;20484;-78
2023/09/25 02:35:11;;;;;;;1.75;1.10;;;15.40;1.00;;;;;;4942197;28;20070;-79
2023/09/25 02:37:37;;;;;;;0.90;0.85;;;15.40;1.00;;;;;;4940850;28;20077;-78
2023/09/25 02:40:05;;;;;;;1.08;0.98;;;15.40;1.00;;;;;;4940193;28;20024;-79
2023/09/25 02:42:31;;;;;;;2.08;0.90;;;15.40;1.00;;;;;;4952441;28;20478;-78
2023/09/25 02:44:57;;;;;;;2.05;0.88;;;15.50;1.00;;;;;;4955642;28;20032;-79
2023/09/25 02:47:22;;;;;;;3.13;0.88;;;15.50;1.00;;;;;;4939607;28;20031;-78
2023/09/25 02:49:48;;;;;;;3.50;1.00;;;15.60;99.90;;;;;;4942190;28;20110;-78
2023/09/25 02:52:14;;;;;;;1.15;1.05;;;15.60;99.90;;;;;;5007851;28;20031;-78
2023/09/25 02:54:39;;;;;;;1.42;1.00;;;15.60;99.90;;;;;;4941630;28;20198;-79
2023/09/25 02:57:05;;;;;;;1.13;0.82;;;15.50;99.90;;;;;;4960737;28;20027;-77
2023/09/25 02:59:31;;;;;;;2.17;0.82;;;15.50;99.90;;;;;;4944024;28;20082;-78
2023/09/25 03:01:56;;;;;;;1.73;0.93;;;15.40;99.90;;;;;;4946302;28;20039;-78
2023/09/25 03:04:22;;;;;;;1.10;1.00;;;15.50;99.90;;;;;;4942846;28;20059;-78
2023/09/25 03:06:48;;;;;;;1.80;1.00;;;15.40;99.90;;;;;;4944338;29;20118;-78
2023/09/25 03:09:14;;;;;;;0.82;0.65;;;15.40;99.90;;;;;;4944994;28;20058;-78
2023/09/25 03:11:39;;;;;;;2.58;0.90;;;15.40;99.90;;;;;;4945718;28;20029;-79
2023/09/25 03:14:05;;;;;;;0.93;0.82;;;15.50;99.90;;;;;;5009657;28;20042;-79
2023/09/25 03:16:31;;;;;;;5.30;1.27;;;15.50;99.90;;;;;;4942909;28;20024;-79
2023/09/25 03:18:56;;;;;;;1.95;1.00;;;15.50;99.90;;;;;;4945167;28;20020;-77
2023/09/25 03:21:22;;;;;;;0.90;0.90;;;15.60;99.90;;;;;;4941573;28;20027;-78
2023/09/25 03:23:48;;;;;;;0.80;0.80;;;15.60;99.90;;;;;;4944501;28;20038;-79
2023/09/25 03:26:18;;;;;;;2.25;0.95;;;15.60;99.90;;;;;;4942578;28;20024;-80
2023/09/25 03:28:45;;;;;;;1.65;0.73;;;15.60;99.90;;;;;;4946276;28;20024;-79
2023/09/25 03:31:11;;;;;;;0.80;0.77;;;15.60;99.90;;;;;;4944866;28;20491;-78
2023/09/25 03:33:38;;;;;;;0.95;0.75;;;15.60;99.90;;;;;;4942826;28;20042;-78
2023/09/25 03:36:04;;;;;;;0.80;0.70;;;15.60;99.90;;;;;;4943250;28;20031;-79
2023/09/25 03:38:30;;;;;;;1.70;0.75;;;15.60;99.90;;;;;;4944858;28;20031;-78
2023/09/25 03:40:56;;;;;;;1.00;0.80;;;15.70;99.90;;;;;;4942854;28;20035;-78
2023/09/25 03:43:22;;;;;;;1.48;0.93;;;15.70;99.90;;;;;;4943320;28;20039;-78
2023/09/25 03:45:48;;;;;;;0.98;0.80;;;15.80;99.90;;;;;;4944537;28;20023;-79
2023/09/25 03:48:14;;;;;;;0.85;0.65;;;15.70;95.20;;;;;;4942637;28;20028;-77
2023/09/25 03:50:40;;;;;;;0.68;0.68;;;15.80;99.90;;;;;;4945191;28;20035;-79
2023/09/25 03:53:06;;;;;;;1.13;0.93;;;15.80;88.10;;;;;;4945517;28;20032;-78
2023/09/25 03:55:32;;;;;;;1.27;0.80;;;15.80;49.00;;;;;;4942409;28;20051;-78
2023/09/25 03:57:58;;;;;;;1.95;0.70;;;15.90;99.90;;;;;;4952601;28;20054;-78
2023/09/25 04:00:24;;;;;;;0.70;0.70;;;15.90;27.30;;;;;;4942128;28;20032;-79
2023/09/25 04:02:50;;;;;;;2.15;0.80;;;15.90;1.00;;;;;;4943914;28;20027;-78
2023/09/25 04:05:16;;;;;;;0.75;0.70;;;15.80;1.00;;;;;;5018804;28;20051;-79
2023/09/25 04:07:42;;;;;;;2.63;0.80;;;15.80;1.00;;;;;;4941535;28;20058;-79
2023/09/25 04:10:08;;;;;;;1.95;0.90;;;15.90;1.00;;;;;;4943923;28;20024;-78
2023/09/25 04:12:37;;;;;;;14.52;1.00;;;15.90;1.00;;;;;;5010512;28;20386;-78
2023/09/25 04:15:08;;;;;;;1.70;0.95;;;15.90;99.90;;;;;;5010844;28;20039;-78
2023/09/25 04:17:34;;;;;;;1.13;1.05;;;15.90;99.90;;;;;;4943279;28;20027;-78
2023/09/25 04:20:00;;;;;;;2.40;0.98;;;16.00;99.90;;;;;;4941761;28;20047;-79
2023/09/25 04:22:27;;;;;;;0.77;0.77;;;15.90;99.90;;;;;;4941582;28;20059;-78
2023/09/25 04:24:52;;;;;;;0.73;0.70;;;15.90;99.90;;;;;;4942516;28;20364;-78
2023/09/25 04:27:18;;;;;;;1.58;0.68;;;15.90;99.90;;;;;;4954378;28;20031;-78
2023/09/25 04:29:44;;;;;;;0.90;0.90;;;15.90;99.90;;;;;;4943802;28;20028;-78
2023/09/25 04:32:10;;;;;;;1.02;0.98;;;15.90;99.90;;;;;;4943229;28;20075;-78
2023/09/25 04:34:37;;;;;;;1.02;0.77;;;15.90;99.90;;;;;;4958813;28;20031;-78
2023/09/25 04:37:03;;;;;;;1.48;1.15;;;15.90;99.90;;;;;;4943560;28;20020;-79
2023/09/25 04:39:32;;;;;;;1.52;0.85;;;16.00;99.90;;;;;;4943454;28;20691;-78
2023/09/25 04:41:59;;;;;;;0.70;0.70;;;15.90;99.90;;;;;;4941320;28;20497;-79
2023/09/25 04:44:25;;;;;;;1.10;0.90;;;16.00;99.90;;;;;;5009034;28;20114;-78
2023/09/25 04:46:51;;;;;;;0.60;0.60;;;16.00;99.90;;;;;;4943761;28;20443;-79
2023/09/25 04:49:18;;;;;;;1.17;0.60;;;16.00;99.90;;;;;;4941338;28;20113;-79
2023/09/25 04:51:43;;;;;;;0.80;0.80;;;16.10;99.90;;;;;;4941366;28;20051;-79
2023/09/25 04:54:10;;;;;;;0.90;0.85;;;16.10;99.90;;;;;;4941344;28;20044;-79
2023/09/25 04:56:36;;;;;;;0.70;0.70;;;16.10;99.90;;;;;;5028328;28;20123;-78
2023/09/25 04:59:03;;;;;;;1.08;0.98;;;16.20;99.90;;;;;;5008389;28;20069;-79
2023/09/25 05:01:28;;;;;;;1.83;0.70;;;16.30;98.10;;;;;;4943558;28;20036;-78
2023/09/25 05:03:54;;;;;;;1.63;0.80;;;16.20;99.90;;;;;;4941391;28;20039;-79
2023/09/25 05:06:20;;;;;;;1.40;0.60;;;16.20;99.90;;;;;;4942269;28;20051;-80
2023/09/25 05:08:45;;;;;;;2.70;0.90;;;16.20;99.90;;;;;;4940191;28;20439;-78
2023/09/25 05:11:11;;;;;;;0.85;0.73;;;16.20;99.90;;;;;;4939100;28;20043;-78
2023/09/25 05:13:37;;;;;;;2.05;0.90;;;16.20;99.90;;;;;;5015500;28;20031;-80
2023/09/25 05:16:03;;;;;;;1.27;0.70;;;16.20;99.90;;;;;;4939655;28;20563;-78
2023/09/25 05:18:29;;;;;;;1.30;0.93;;;16.10;99.90;;;;;;4941115;28;20518;-78
2023/09/25 05:20:57;;;;;;;1.10;1.00;;;16.20;88.00;;;;;;5010185;28;20035;-78
2023/09/25 05:23:23;;;;;;;0.82;0.82;;;16.20;53.80;;;;;;4948985;28;20050;-78
2023/09/25 05:25:49;;;;;;;3.47;0.98;;;16.30;40.00;;;;;;5017176;28;20395;-79
2023/09/25 05:28:14;;;;;;;1.58;0.90;;;16.30;25.30;;;;;;4961755;28;20027;-78
2023/09/25 05:30:40;;;;;;;2.25;1.00;;;16.40;25.90;;;;;;4950962;28;20019;-78
2023/09/25 05:33:06;;;;;;;3.42;1.10;;;16.40;20.20;;;;;;4944397;28;20020;-79
2023/09/25 05:35:32;;;;;;;0.80;0.77;;;16.40;21.00;;;;;;4947284;28;20368;-78
2023/09/25 05:37:58;;;;;;;1.45;0.80;;;16.40;15.10;;;;;;5017094;28;20030;-80
2023/09/25 05:40:23;;;;;;;4.60;1.00;;;16.40;24.10;;;;;;4947380;28;20032;-77
2023/09/25 05:42:50;;;;;;;1.85;0.93;;;16.40;22.10;;;;;;4941675;28;20492;-77
2023/09/25 05:45:20;;;;;;;1.08;0.80;;;16.40;21.60;;;;;;4942986;28;20027;-78
2023/09/25 05:47:46;;;;;;;2.55;0.90;;;16.40;7.20;;;;;;4941182;28;20023;-78
2023/09/25 05:50:12;;;;;;;0.75;0.73;;;16.50;27.60;;;;;;4940979;28;20408;-78
2023/09/25 05:52:39;;;;;;;2.17;0.88;;;16.50;21.90;;;;;;4939594;28;20076;-78
2023/09/25 05:55:09;;;;;;;2.00;0.98;;;16.50;16.20;;;;;;4941808;28;20122;-79
2023/09/25 05:57:34;;;;;;;1.35;0.90;;;16.50;13.70;;;;;;4946695;28;20035;-77
2023/09/25 06:00:00;;;;;;;3.35;0.65;;;16.60;1.00;;;;;;4940436;28;20038;-78
2023/09/25 06:02:33;;;;;;;1.75;0.80;;;16.50;99.90;;;;;;4941239;28;20039;-78
2023/09/25 06:04:59;;;;;;;1.85;0.90;;;16.50;99.90;;;;;;5014708;28;20162;-78
2023/09/25 06:07:24;;;;;;;1.80;1.00;;;16.50;93.30;;;;;;4939380;28;20440;-78
2023/09/25 06:09:50;;;;;;;1.50;0.77;;;16.60;19.50;;;;;;4941490;28;20016;-78
2023/09/25 06:12:16;;;;;;;0.98;0.90;;;16.70;1.00;;;;;;4941215;28;20031;-78
2023/09/25 06:14:42;;;;;;;1.80;0.90;;;16.80;1.00;;;;;;4939371;28;20106;-77
2023/09/25 06:17:09;;;;;;;2.58;0.82;;;16.80;3.20;;;;;;5012078;28;20435;-78
2023/09/25 06:19:36;;;;;;;2.13;1.30;;;16.90;2.70;;;;;;4941367;28;20070;-77
2023/09/25 06:22:02;;;;;;;1.95;0.80;;;16.80;17.60;;;;;;5015976;28;20031;-78
2023/09/25 06:24:28;;;;;;;2.17;1.40;;;16.90;60.30;;;;;;4940009;28;20042;-78
2023/09/25 06:26:53;;;;;;;2.47;1.75;;;16.90;69.00;;;;;;4943662;29;20538;-78
2023/09/25 06:29:21;;;;;;;1.92;1.05;;;16.90;77.00;;;;;;4941255;28;20039;-80
2023/09/25 06:31:47;;;;;;;3.72;1.10;;;16.90;36.60;;;;;;4939297;28;20055;-79
2023/09/25 06:34:13;;;;;;;5.95;1.17;;;17.00;18.60;;;;;;4958396;28;20019;-79
2023/09/25 06:36:39;;;;;;;1.17;0.70;;;17.10;1.00;;;;;;4941266;28;20490;-78
2023/09/25 06:39:06;;;;;;;3.03;0.98;;;17.20;1.00;;;;;;5005375;28;20016;-78
2023/09/25 06:41:36;;;;;;;2.75;1.00;;;17.30;1.00;;;;;;5005624;28;20031;-77
2023/09/25 06:44:04;;;;;;;2.00;0.85;;;17.30;1.00;;;;;;4940162;28;20019;-78
2023/09/25 06:46:33;;;;;;;0.77;0.77;;;17.40;1.00;;;;;;4942610;28;20023;-78
2023/09/25 06:49:00;;;;;;;1.15;1.05;;;17.40;1.00;;;;;;4943174;28;20030;-78
2023/09/25 06:51:28;;;;;;;2.65;0.90;;;17.50;1.00;;;;;;4946584;28;20115;-78
2023/09/25 06:53:53;;;;;;;3.15;1.10;;;17.50;1.00;;;;;;4940341;28;20059;-79
2023/09/25 06:56:19;;;;;;;5.13;1.42;;;17.60;1.00;;;;;;4950310;28;20098;-78
2023/09/25 06:58:45;;;;;;;3.47;1.05;;;17.60;1.00;;;;;;4944586;28;20023;-78
2023/09/25 07:01:11;;;;;;;1.15;1.02;;;17.60;1.00;;;;;;5005864;28;20503;-78
2023/09/25 07:03:37;;;;;;;2.03;1.00;;;17.70;1.00;;;;;;4939958;28;20396;-78
2023/09/25 07:06:03;;;;;;;3.00;1.17;;;17.70;1.00;;;;;;4941861;28;20023;-78
2023/09/25 07:08:30;;;;;;;1.33;0.50;;;17.80;1.00;;;;;;4940325;28;20127;-80
2023/09/25 07:10:58;;;;;;;1.55;1.10;;;18.00;1.00;;;;;;5005583;28;20503;-78
2023/09/25 07:13:24;;;;;;;1.42;0.70;;;18.10;1.00;;;;;;4941895;28;20066;-78
2023/09/25 07:15:50;;;;;;;1.80;0.90;;;18.10;1.00;;;;;;4939271;28;20487;-78
2023/09/25 07:18:17;;;;;;;0.98;0.80;;;18.20;1.00;;;;;;4937933;28;20027;-78
2023/09/25 07:20:45;;;;;;;0.80;0.70;;;18.20;1.00;;;;;;5005843;28;20123;-79
2023/09/25 07:23:11;;;;;;;1.02;0.80;;;18.30;1.00;;;;;;4936101;28;20043;-78
2023/09/25 07:25:37;;;;;;;1.00;0.82;;;18.40;1.00;;;;;;4939800;28;20525;-78
2023/09/25 07:28:03;;;;;;;0.60;0.60;;;18.40;1.00;;;;;;4955460;28;20023;-78
2023/09/25 07:30:29;;;;;;;1.83;0.80;;;18.50;1.00;;;;;;4939348;28;20093;-78
2023/09/25 07:32:55;;;;;;;0.63;0.63;;;18.50;1.00;;;;;;4937108;28;20032;-78
2023/09/25 07:35:21;;;;;;;2.67;0.73;;;18.60;99.90;;;;;;4950900;28;20382;-79
2023/09/25 07:37:47;;;;;;;1.42;1.00;;;18.60;1.00;;;;;;4951344;29;20102;-79
2023/09/25 07:40:14;;;;;;;0.60;0.60;;;18.70;1.00;;;;;;4951253;28;20027;-78
2023/09/25 07:42:41;;;;;;;2.65;0.60;;;18.70;1.00;;;;;;4950965;28;20031;-78
2023/09/25 07:45:11;;;;;;;0.75;0.70;;;18.80;99.90;;;;;;4954474;28;20031;-79
2023/09/25 07:47:41;;;;;;;0.80;0.80;;;18.80;1.00;;;;;;4947279;28;20024;-79
2023/09/25 07:50:10;;;;;;;0.70;0.70;;;18.90;1.00;;;;;;4944363;28;20058;-78
2023/09/25 07:52:39;;;;;;;0.75;0.75;;;18.90;1.00;;;;;;4944220;29;20027;-78
2023/09/25 07:55:10;;;;;;;0.70;0.63;;;18.90;1.00;;;;;;4945895;29;20449;-78
2023/09/25 07:57:40;;;;;;;1.13;0.70;;;18.90;1.00;;;;;;5015019;28;20286;-76
2023/09/25 08:00:21;;;;;;;2.53;0.55;;;19.00;1.00;;;;;;4954163;28;20395;-78
2023/09/25 08:02:48;;;;;;;1.13;0.98;;;19.00;1.00;;;;;;5006384;28;20454;-76
2023/09/25 08:05:20;;;;;;;0.68;0.68;;;19.00;1.00;;;;;;4952936;28;20023;-76
2023/09/25 08:07:47;;;;;;;1.33;0.55;;;19.10;1.00;;;;;;4950457;29;20023;-77
2023/09/25 08:10:13;;;;;;;2.22;0.70;;;19.10;1.00;;;;;;5017349;28;20024;-77
2023/09/25 08:12:39;;;;;;;2.03;1.00;;;19.20;1.00;;;;;;5012459;28;20035;-77
2023/09/25 08:15:06;;;;;;;0.60;0.60;;;19.20;1.00;;;;;;4950504;28;20027;-76
2023/09/25 08:17:32;;;;;;;0.82;0.82;;;19.20;1.00;;;;;;4953964;29;20501;-77
2023/09/25 08:19:58;;;;;;;1.95;0.60;;;19.20;1.00;;;;;;4954135;29;20027;-77
2023/09/25 08:22:25;;;;;;;0.63;0.60;;;19.20;1.00;;;;;;4954051;28;20042;-76
2023/09/25 08:24:51;;;;;;;0.80;0.75;;;19.10;18.90;;;;;;4953995;28;20074;-79
2023/09/25 08:27:19;;;;;;;1.15;0.80;;;19.20;1.00;;;;;;5002890;28;20024;-77
2023/09/25 08:29:45;;;;;;;0.68;0.68;;;19.30;96.50;;;;;;5055330;28;20469;-76
2023/09/25 08:32:11;;;;;;;1.05;1.05;;;19.30;93.30;;;;;;5034527;28;20426;-76
2023/09/25 08:34:37;;;;;;;1.95;0.60;;;19.60;5.30;;;;;;4945071;28;20078;-76
2023/09/25 08:37:03;;;;;;;1.30;0.85;;;19.60;69.20;;;;;;4934713;28;20032;-77
2023/09/25 08:39:32;;;;;;;1.30;1.02;;;19.80;1.00;;;;;;4938562;28;20035;-76
2023/09/25 08:41:58;;;;;;;2.30;0.70;;;20.00;17.90;;;;;;4946264;28;20032;-75
2023/09/25 08:44:25;;;;;;;0.80;0.80;;;19.90;91.10;;;;;;5020047;28;20418;-76
2023/09/25 08:46:51;;;;;;;3.83;0.75;;;19.90;99.90;;;;;;4953896;28;20023;-77
2023/09/25 08:49:17;;;;;;;1.33;0.90;;;19.90;99.90;;;;;;4949905;28;20034;-77
2023/09/25 08:51:43;;;;;;;2.85;1.35;;;19.90;99.90;;;;;;4949842;29;20086;-77
2023/09/25 08:54:09;;;;;;;4.75;1.15;;;20.10;99.90;;;;;;4945629;28;20044;-77
2023/09/25 08:56:36;;;;;;;5.10;1.10;;;20.10;99.90;;;;;;4953489;28;20110;-76
2023/09/25 08:59:05;;;;;;;5.40;1.30;;;20.10;99.90;;;;;;4953540;28;20031;-77
2023/09/25 09:01:32;;;;;;;3.38;1.10;;;20.20;99.90;;;;;;4951357;28;20023;-77
2023/09/25 09:03:58;;;;;;;3.10;0.95;;;20.20;99.90;;;;;;4950523;28;20031;-77
2023/09/25 09:06:24;;;;;;;3.67;1.00;;;20.20;99.90;;;;;;5013226;28;20043;-77
2023/09/25 09:08:51;;;;;;;3.10;1.23;;;20.30;99.90;;;;;;4950855;28;20031;-78
2023/09/25 09:11:19;;;;;;;1.52;1.00;;;20.20;99.90;;;;;;4946171;28;20035;-77
2023/09/25 09:13:46;;;;;;;4.22;1.00;;;20.20;99.90;;;;;;4940714;28;20031;-77
2023/09/25 09:16:13;;;;;;;3.83;0.90;;;20.10;99.90;;;;;;4940186;28;20027;-77
2023/09/25 09:18:39;;;;;;;1.83;0.98;;;20.10;99.90;;;;;;4945414;28;20652;-78
2023/09/25 09:21:07;;;;;;;2.15;1.10;;;20.10;83.90;;;;;;4936744;28;20031;-78
2023/09/25 09:23:42;;;;;;;2.53;1.05;;;20.20;70.30;;;;;;4952803;28;20047;-78
2023/09/25 09:26:13;;;;;;;4.28;1.08;;;20.20;99.90;;;;;;5013763;28;20056;-73
2023/09/25 09:28:42;;;;;;;1.77;0.82;;;20.20;99.90;;;;;;4994765;28;20123;-72
2023/09/25 09:31:08;;;;;;;2.83;1.00;;;20.20;99.90;;;;;;4941526;28;20098;-73
2023/09/25 09:33:40;;;;;;;0.88;0.70;;;20.20;99.90;;;;;;4948331;29;20106;-72
2023/09/25 09:36:05;;;;;;;1.95;1.00;;;20.20;99.90;;;;;;5012297;28;20489;-72
2023/09/25 09:38:33;;;;;;;2.35;1.30;;;20.20;99.90;;;;;;4939785;28;20110;-73
2023/09/25 09:41:01;;;;;;;2.78;0.95;;;20.40;68.60;;;;;;5011883;28;20058;-72
2023/09/25 09:43:27;;;;;;;2.55;1.10;;;20.30;13.70;;;;;;4938976;28;20059;-72
2023/09/25 09:45:54;;;;;;;1.58;1.10;;;20.30;55.60;;;;;;4935424;28;20085;-72
2023/09/25 09:48:20;;;;;;;3.08;0.80;;;20.40;29.80;;;;;;5012160;28;20502;-72
2023/09/25 09:50:49;;;;;;;1.60;0.80;;;20.40;1.00;;;;;;5009057;28;20028;-72
2023/09/25 09:53:17;;;;;;;2.75;1.05;;;20.60;1.00;;;;;;4939764;28;20028;-74
2023/09/25 09:55:44;;;;;;;2.05;0.68;;;20.60;1.00;;;;;;4946877;28;20042;-72
2023/09/25 09:58:11;;;;;;;3.13;1.00;;;20.60;1.00;;;;;;5013708;28;20431;-73
2023/09/25 10:00:39;;;;;;;1.85;1.00;;;20.80;1.00;;;;;;4937865;28;20046;-73
2023/09/25 10:03:08;;;;;;;0.77;0.70;;;20.80;1.00;;;;;;4936899;28;20114;-73
2023/09/25 10:05:43;;;;;;;0.93;0.55;;;20.80;1.00;;;;;;4935333;28;20023;-73
2023/09/25 10:08:10;;;;;;;4.85;0.75;;;20.80;99.90;;;;;;5019999;28;20677;-72
2023/09/25 10:10:48;;;;;;;3.30;0.95;;;20.80;99.90;;;;;;4937939;28;20024;-73
2023/09/25 10:13:29;;;;;;;2.28;0.77;;;20.70;99.90;;;;;;5001615;28;20060;-72
2023/09/25 10:16:00;;;;;;;2.20;0.80;;;20.80;1.00;;;;;;4936284;28;20020;-72
2023/09/25 10:18:29;;;;;;;0.95;0.73;;;20.80;99.90;;;;;;4939810;28;20023;-72
2023/09/25 10:21:20;;;;;;;2.55;0.77;;;20.80;1.00;;;;;;4939148;28;20023;-72
2023/09/25 10:23:51;;;;;;;1.13;0.60;;;20.90;1.00;;;;;;4940612;28;20028;-73
2023/09/25 10:26:25;;;;;;;4.20;0.75;;;20.90;1.00;;;;;;4939129;28;20035;-72
2023/09/25 10:29:16;;;;;;;3.33;0.80;;;21.00;1.00;;;;;;4940371;28;20492;-73
2023/09/25 10:31:48;;;;;;;2.15;0.70;;;21.00;1.00;;;;;;4938013;28;20475;-73
2023/09/25 10:34:14;;;;;;;1.27;0.45;;;21.10;1.00;;;;;;4937039;28;20103;-73
2023/09/25 10:36:42;;;;;;;1.05;0.80;;;21.10;1.00;;;;;;4936505;28;20106;-73
2023/09/25 10:39:09;;;;;;;1.40;0.77;;;21.30;1.00;;;;;;4936417;28;20023;-73
2023/09/25 10:41:36;;;;;;;0.60;0.60;;;21.30;1.00;;;;;;4939243;28;20023;-73
2023/09/25 10:44:03;;;;;;;1.73;0.80;;;21.30;1.00;;;;;;5009382;28;20684;-72
2023/09/25 10:46:29;;;;;;;0.80;0.60;;;21.30;1.00;;;;;;4937369;28;20024;-73
2023/09/25 10:48:55;;;;;;;1.98;0.70;;;21.30;1.00;;;;;;4935180;28;20027;-73
2023/09/25 10:51:21;;;;;;;2.55;1.00;;;21.50;99.90;;;;;;4935702;28;20031;-73
2023/09/25 10:53:47;;;;;;;3.38;1.20;;;21.40;1.00;;;;;;4999185;28;20047;-72
2023/09/25 10:56:13;;;;;;;4.82;0.88;;;21.50;99.90;;;;;;4939428;28;20486;-79
2023/09/25 10:58:38;;;;;;;1.40;1.10;;;21.60;99.90;;;;;;4965594;28;20038;-79
2023/09/25 11:01:07;;;;;;;1.27;0.90;;;21.60;99.90;;;;;;5015022;28;20038;-77
2023/09/25 11:03:32;;;;;;;2.47;0.75;;;21.60;99.90;;;;;;4949144;28;20031;-77
2023/09/25 11:05:58;;;;;;;4.60;0.80;;;21.70;99.90;;;;;;4941274;29;20034;-76
2023/09/25 11:08:26;;;;;;;1.00;0.90;;;21.90;99.90;;;;;;4948968;28;20032;-77
2023/09/25 11:10:52;;;;;;;1.20;0.90;;;21.90;99.90;;;;;;4941796;28;20038;-76
2023/09/25 11:13:20;;;;;;;2.13;0.82;;;21.90;99.90;;;;;;4934279;28;20050;-76
2023/09/25 11:15:46;;;;;;;1.63;1.08;;;22.00;99.90;;;;;;4935535;28;20024;-77
2023/09/25 11:18:12;;;;;;;3.08;1.00;;;22.10;99.90;;;;;;4931406;28;20107;-77
2023/09/25 11:20:39;;;;;;;0.70;0.70;;;22.10;99.90;;;;;;4938531;28;20130;-77
2023/09/25 11:23:14;;;;;;;1.00;0.80;;;22.00;99.90;;;;;;4952617;28;20028;-78
2023/09/25 11:25:44;;;;;;;1.05;0.75;;;21.90;99.90;;;;;;5002386;28;20030;-77
2023/09/25 11:28:17;;;;;;;1.02;0.90;;;22.00;99.90;;;;;;4949330;28;20034;-76
2023/09/25 11:30:46;;;;;;;2.45;0.70;;;22.00;99.90;;;;;;4946643;28;20388;-77
2023/09/25 11:33:15;;;;;;;1.00;0.90;;;22.00;99.90;;;;;;4943767;28;20032;-77
2023/09/25 11:35:44;;;;;;;2.05;0.60;;;22.20;99.90;;;;;;5018920;28;20487;-77
2023/09/25 11:38:17;;;;;;;1.42;1.00;;;22.20;99.90;;;;;;4952044;28;20046;-77
2023/09/25 11:40:44;;;;;;;1.02;0.55;;;22.20;99.90;;;;;;4942990;28;20019;-77
2023/09/25 11:43:11;;;;;;;1.45;0.85;;;22.10;99.90;;;;;;4932927;28;20493;-78
2023/09/25 11:45:38;;;;;;;1.65;0.88;;;22.10;99.90;;;;;;4933168;28;20028;-78
2023/09/25 11:48:04;;;;;;;3.25;0.93;;;22.10;99.90;;;;;;5017647;28;20031;-77
2023/09/25 11:50:30;;;;;;;2.20;1.00;;;22.20;99.90;;;;;;4952508;28;20031;-75
2023/09/25 11:52:56;;;;;;;0.70;0.60;;;22.30;99.90;;;;;;5018328;28;20028;-78
2023/09/25 11:55:22;;;;;;;2.30;0.90;;;22.50;99.90;;;;;;4951334;28;20059;-77
2023/09/25 11:57:48;;;;;;;1.63;1.00;;;22.60;99.90;;;;;;5001267;28;20035;-76
2023/09/25 12:00:15;;;;;;;0.98;0.80;;;22.70;99.90;;;;;;5018286;28;20023;-78
2023/09/25 12:02:43;;;;;;;2.38;1.02;;;22.80;99.90;;;;;;4934849;28;20472;-77
2023/09/25 12:05:09;;;;;;;3.95;1.05;;;22.80;99.90;;;;;;4942946;28;20058;-76
2023/09/25 12:07:36;;;;;;;0.77;0.75;;;22.70;99.90;;;;;;4937205;28;20040;-77
2023/09/25 12:10:06;;;;;;;1.92;0.70;;;22.70;99.90;;;;;;4951646;28;20035;-77
2023/09/25 12:12:39;;;;;;;1.73;0.98;;;22.80;99.90;;;;;;4940452;28;20031;-77
2023/09/25 12:15:07;;;;;;;1.40;0.60;;;22.90;99.90;;;;;;4948641;28;20024;-76
2023/09/25 12:17:34;;;;;;;1.85;1.00;;;22.90;99.90;;;;;;5015688;28;20027;-78
2023/09/25 12:20:03;;;;;;;3.40;0.98;;;22.90;99.90;;;;;;4951898;28;20109;-78
2023/09/25 12:22:29;;;;;;;4.25;0.70;;;22.90;99.90;;;;;;4934655;28;20119;-76
2023/09/25 12:24:55;;;;;;;0.88;0.88;;;23.00;99.90;;;;;;4935744;28;20028;-78
2023/09/25 12:27:21;;;;;;;0.60;0.57;;;22.90;99.90;;;;;;5001540;28;20025;-77
2023/09/25 12:29:46;;;;;;;1.58;0.73;;;22.90;99.90;;;;;;4951405;28;20024;-78
2023/09/25 12:32:12;;;;;;;1.50;1.00;;;22.90;99.90;;;;;;5008681;28;20035;-78
2023/09/25 12:34:39;;;;;;;1.02;0.90;;;22.90;99.90;;;;;;4932366;28;20622;-78
2023/09/25 12:37:05;;;;;;;2.28;0.82;;;22.90;99.90;;;;;;4935542;28;20082;-77
2023/09/25 12:39:31;;;;;;;1.48;0.90;;;22.90;99.90;;;;;;4939789;28;20063;-77
2023/09/25 12:41:57;;;;;;;1.38;1.05;;;23.00;99.90;;;;;;4934901;28;20070;-77
2023/09/25 12:44:22;;;;;;;0.70;0.70;;;23.10;99.90;;;;;;4951338;28;20542;-78
2023/09/25 12:46:48;;;;;;;2.63;1.17;;;23.20;99.90;;;;;;4950603;28;20046;-76
2023/09/25 12:49:14;;;;;;;0.90;0.77;;;23.20;99.90;;;;;;4950903;28;20722;-76